< Typhoon 202010 2020 Season Typhoon 202012 >
Typhoon 202011 (NOUL)
General InformationDetailed Track InformationTrack Information on Google MapsForecast History on Google MapsAccess Analytics MapList of All Images || NewsDisaster Info.WeblogTrackbackTyphoon FrontTwiphoonTyphoon Now!Typhoon ImaginationJMA Disaster Info. XMLResourceGoogle EarthGE AnimationAtom FeedGeoJSON
Detalied Best Track Wind (Time Zone = UTC)
Year Month Day Hour Lat. Long. Wind (kt) Gust (kt) Direc. of Major Storm Axis Radius of Major Storm Axis (nm) Radius of Minor Storm Axis (nm) Direc. of Major Gale Axis Radius of Major Gale Axis (nm) Radius of Minor Gale Axis (nm) Image
2020 9 15 06 12.3 120.4 30 45 - - - - - - Image
2020 9 15 09 12.7 119.4 30 45 - - - - - - Image
2020 9 15 12 12.7 119.1 30 45 - - - - - - Image
2020 9 15 15 13.0 118.7 30 45 - - - - - - Image
2020 9 15 18 13.0 118.5 40 60 - - - symmetric 60 60 Image
2020 9 16 06 13.2 116.9 45 65 - - - symmetric 90 90 Image
2020 9 16 09 13.3 116.3 45 65 - - - symmetric 90 90 Image
2020 9 16 12 13.5 115.5 50 70 - - - symmetric 90 90 Image
2020 9 16 15 13.6 115.1 50 70 - - - symmetric 90 90 Image
2020 9 16 18 13.7 114.2 50 70 - - - symmetric 90 90 Image
2020 9 16 21 14.0 114.0 50 70 - - - symmetric 90 90 Image
2020 9 17 00 14.4 114.0 50 70 - - - symmetric 180 180 Image
2020 9 17 03 14.8 113.8 50 70 - - - symmetric 180 180 Image
2020 9 17 06 15.3 113.1 50 70 - - - symmetric 180 180 Image
2020 9 17 09 15.8 112.5 50 70 - - - symmetric 180 180 Image
2020 9 17 12 15.9 111.8 50 70 - - - symmetric 180 180 Image
2020 9 17 15 15.9 110.9 50 70 - - - symmetric 180 180 Image
2020 9 17 18 15.9 110.3 45 65 - - - symmetric 180 180 Image
2020 9 17 21 15.9 109.6 35 50 - - - symmetric 180 180 Image
2020 9 18 00 16.4 108.1 35 50 - - - symmetric 180 180 Image
2020 9 18 03 16.4 107.0 35 50 - - - symmetric 180 180 Image
2020 9 18 06 16.3 104.9 40 60 - - - symmetric 180 180 Image
2020 9 18 09 16.2 104.3 40 60 - - - symmetric 180 180 Image
2020 9 18 12 16.2 103.9 35 50 - - - symmetric 180 180 Image
2020 9 18 15 16.1 103.4 35 50 - - - symmetric 180 180 Image
2020 9 18 18 16.0 103.0 0 0 - - - - - - Image
Japan Meteorological Agency Best Track Data | Correction Date : 2020-09-18
< Typhoon 202010 2020 Season Typhoon 202012 >

Help